Time;durP1;ratioP1;P1;durP2;ratioP2;P2;SDS_P1;SDS_P2;PMS_P1;PMS_P2;Temp;Humidity;BMP_temperature;BMP_pressure;BME280_temperature;BME280_humidity;BME280_pressure;Samples;Min_cycle;Max_cycle;Signal;HPM_P1;HPM_P2
2021/07/09 00:02:18;;;;;;;12.10;10.67;;;18.10;99.90;;;;;;5029740;28;20242;-67
2021/07/09 00:04:47;;;;;;;9.70;8.90;;;18.10;99.90;;;;;;5029858;28;20321;-67
2021/07/09 00:07:18;;;;;;;11.03;10.03;;;18.10;99.90;;;;;;5029908;28;20239;-67
2021/07/09 00:09:51;;;;;;;10.03;9.10;;;18.10;99.90;;;;;;5029166;28;20250;-67
2021/07/09 00:12:21;;;;;;;10.40;9.30;;;18.10;99.90;;;;;;5029441;28;20268;-67
2021/07/09 00:14:50;;;;;;;10.23;8.43;;;18.10;99.90;;;;;;5029578;28;20240;-66
2021/07/09 00:17:20;;;;;;;9.83;8.83;;;18.10;99.90;;;;;;5029544;28;20239;-67
2021/07/09 00:19:50;;;;;;;10.07;8.73;;;18.20;99.90;;;;;;5028996;28;20261;-68
2021/07/09 00:22:21;;;;;;;9.07;8.20;;;18.20;99.90;;;;;;5029552;28;20234;-67
2021/07/09 00:24:51;;;;;;;10.07;9.07;;;18.20;99.90;;;;;;5046150;28;20237;-67
2021/07/09 00:27:21;;;;;;;10.80;8.83;;;18.20;99.90;;;;;;5049465;28;20242;-67
2021/07/09 00:29:50;;;;;;;9.33;8.57;;;18.10;99.90;;;;;;5064122;28;20237;-67
2021/07/09 00:32:20;;;;;;;10.97;9.23;;;18.10;99.90;;;;;;5049201;28;20302;-67
2021/07/09 00:34:50;;;;;;;10.67;9.67;;;18.10;99.90;;;;;;5032008;28;20245;-66
2021/07/09 00:37:20;;;;;;;10.80;9.53;;;18.00;99.90;;;;;;5028916;28;20271;-67
2021/07/09 00:39:50;;;;;;;10.67;9.77;;;18.00;99.90;;;;;;5028165;28;20578;-67
2021/07/09 00:42:19;;;;;;;9.90;9.03;;;18.10;99.90;;;;;;5028552;28;20459;-68
2021/07/09 00:44:49;;;;;;;12.53;11.40;;;18.00;99.90;;;;;;5028720;28;20284;-67
2021/07/09 00:47:18;;;;;;;12.47;11.17;;;18.10;99.90;;;;;;5029162;28;20233;-67
2021/07/09 00:49:49;;;;;;;13.67;12.40;;;18.10;99.90;;;;;;5028209;28;20234;-67
2021/07/09 00:52:18;;;;;;;12.50;11.20;;;18.00;99.90;;;;;;5029126;28;20234;-68
2021/07/09 00:54:52;;;;;;;12.60;11.40;;;18.00;99.90;;;;;;5045717;28;20231;-67
2021/07/09 00:57:21;;;;;;;11.87;10.77;;;18.10;99.90;;;;;;5048967;28;20238;-67
2021/07/09 00:59:50;;;;;;;10.57;9.57;;;18.00;99.90;;;;;;5048055;28;20247;-66
2021/07/09 01:02:20;;;;;;;11.53;10.43;;;18.00;99.90;;;;;;5048464;28;20686;-67
2021/07/09 01:04:51;;;;;;;10.73;9.80;;;18.00;99.90;;;;;;5031564;28;20316;-67
2021/07/09 01:07:21;;;;;;;10.63;9.63;;;17.90;99.90;;;;;;5029680;28;20242;-67
2021/07/09 01:09:52;;;;;;;12.30;10.00;;;17.90;99.90;;;;;;5032220;28;20241;-67
2021/07/09 01:12:22;;;;;;;10.67;9.67;;;17.90;99.90;;;;;;5028412;28;20238;-67
2021/07/09 01:14:51;;;;;;;11.10;9.50;;;17.80;99.90;;;;;;5044544;28;20295;-67
2021/07/09 01:17:21;;;;;;;10.77;9.67;;;17.90;99.90;;;;;;5048411;28;20596;-66
2021/07/09 01:19:57;;;;;;;10.57;9.20;;;17.90;99.90;;;;;;5047635;28;20329;-67
2021/07/09 01:22:29;;;;;;;9.83;8.83;;;17.90;99.90;;;;;;5046120;28;20255;-68
2021/07/09 01:25:00;;;;;;;11.70;10.50;;;18.00;99.90;;;;;;5028507;28;20230;-67
2021/07/09 01:27:30;;;;;;;11.37;10.37;;;17.90;99.90;;;;;;5027799;28;20237;-67
2021/07/09 01:30:00;;;;;;;11.93;10.83;;;17.90;99.90;;;;;;5045963;28;20763;-67
2021/07/09 01:32:29;;;;;;;11.50;10.40;;;17.90;99.90;;;;;;5048202;28;20760;-67
2021/07/09 01:34:59;;;;;;;11.20;10.20;;;17.80;99.90;;;;;;5047948;28;20243;-65
2021/07/09 01:37:29;;;;;;;11.37;10.37;;;17.80;99.90;;;;;;5048109;28;20532;-67
2021/07/09 01:40:00;;;;;;;11.63;10.53;;;17.80;99.90;;;;;;5043221;28;20252;-67
2021/07/09 01:42:30;;;;;;;11.53;10.40;;;17.90;99.90;;;;;;5026531;28;20250;-67
2021/07/09 01:45:00;;;;;;;11.93;9.77;;;17.80;99.90;;;;;;5026770;28;20245;-67
2021/07/09 01:47:29;;;;;;;12.67;9.93;;;18.00;99.90;;;;;;5027151;28;20235;-67
2021/07/09 01:50:01;;;;;;;11.10;10.20;;;17.90;99.90;;;;;;5026573;28;20299;-67
2021/07/09 01:52:32;;;;;;;11.90;10.67;;;17.90;99.90;;;;;;5026918;28;20716;-67
2021/07/09 01:55:06;;;;;;;12.13;10.87;;;17.80;99.90;;;;;;5045444;28;20718;-66
2021/07/09 01:57:36;;;;;;;13.03;11.60;;;17.80;99.90;;;;;;5046827;28;20285;-67
2021/07/09 02:00:17;;;;;;;12.67;11.37;;;17.80;99.90;;;;;;5045926;28;20666;-67
2021/07/09 02:02:45;;;;;;;12.40;11.20;;;17.70;99.90;;;;;;5046473;28;20245;-67
2021/07/09 02:05:15;;;;;;;12.33;11.23;;;17.70;99.90;;;;;;5027186;28;20236;-67
2021/07/09 02:07:44;;;;;;;12.30;11.07;;;17.70;99.90;;;;;;5026709;28;20239;-67
2021/07/09 02:10:17;;;;;;;13.07;10.83;;;17.70;99.90;;;;;;5008868;28;20640;-67
2021/07/09 02:12:45;;;;;;;13.37;11.97;;;17.60;99.90;;;;;;5025988;28;20544;-67
2021/07/09 02:15:16;;;;;;;12.47;11.30;;;17.70;99.90;;;;;;5010924;28;20233;-67
2021/07/09 02:17:45;;;;;;;12.43;11.23;;;17.80;99.90;;;;;;5025619;28;21433;-67
2021/07/09 02:20:16;;;;;;;11.23;10.23;;;17.70;99.90;;;;;;5005601;28;20257;-67
2021/07/09 02:22:45;;;;;;;12.50;11.43;;;17.70;99.90;;;;;;5005729;28;20251;-67
2021/07/09 02:25:16;;;;;;;11.90;10.70;;;17.70;99.90;;;;;;5004585;28;20247;-67
2021/07/09 02:27:48;;;;;;;11.07;10.07;;;17.70;99.90;;;;;;5005000;28;20246;-65
2021/07/09 02:30:18;;;;;;;10.37;9.40;;;17.70;99.90;;;;;;5005425;28;20237;-67
2021/07/09 02:32:48;;;;;;;10.10;9.13;;;17.80;99.90;;;;;;5005327;28;20235;-65
2021/07/09 02:35:18;;;;;;;10.17;9.00;;;17.70;99.90;;;;;;5025240;28;20244;-66
2021/07/09 02:37:47;;;;;;;10.00;9.17;;;17.70;99.90;;;;;;5024917;28;20749;-66
2021/07/09 02:40:19;;;;;;;12.00;9.90;;;17.80;99.90;;;;;;4986521;28;1100924;-67
2021/07/09 02:42:49;;;;;;;11.13;10.13;;;17.60;99.90;;;;;;5025831;28;20291;-68
2021/07/09 02:45:18;;;;;;;10.17;9.27;;;17.60;99.90;;;;;;5025999;28;20719;-67
2021/07/09 02:47:46;;;;;;;10.80;9.87;;;17.60;99.90;;;;;;5025605;28;20760;-66
2021/07/09 02:50:17;;;;;;;10.53;9.53;;;17.60;99.90;;;;;;5005972;28;20237;-67
2021/07/09 02:52:45;;;;;;;11.53;10.40;;;17.60;99.90;;;;;;5005689;28;20241;-66
2021/07/09 02:55:17;;;;;;;11.83;10.83;;;17.50;99.90;;;;;;5006399;28;20234;-67
2021/07/09 02:57:46;;;;;;;10.83;9.83;;;17.60;99.90;;;;;;5006057;28;20238;-67
2021/07/09 03:00:16;;;;;;;11.30;10.30;;;17.70;99.90;;;;;;5006261;28;20295;-67
2021/07/09 03:02:44;;;;;;;10.67;9.73;;;17.70;99.90;;;;;;5007133;28;20252;-68
2021/07/09 03:05:13;;;;;;;10.90;9.80;;;17.80;99.90;;;;;;5007253;28;20763;-67
2021/07/09 03:07:42;;;;;;;11.57;10.47;;;17.60;99.90;;;;;;5007308;28;20235;-67
2021/07/09 03:10:12;;;;;;;10.80;9.87;;;17.70;99.90;;;;;;5025723;28;20233;-67
2021/07/09 03:12:42;;;;;;;11.37;10.37;;;17.60;99.90;;;;;;5026819;28;20748;-67
2021/07/09 03:15:12;;;;;;;12.13;11.03;;;17.50;99.90;;;;;;5026681;28;20298;-67
2021/07/09 03:17:41;;;;;;;11.37;10.37;;;17.40;99.90;;;;;;5026397;28;20237;-67
2021/07/09 03:20:11;;;;;;;14.10;10.77;;;17.30;99.90;;;;;;5026006;28;20270;-66
2021/07/09 03:22:40;;;;;;;12.77;10.80;;;17.30;99.90;;;;;;5026456;28;20241;-67
2021/07/09 03:25:10;;;;;;;12.47;11.27;;;17.30;99.90;;;;;;5026375;28;20313;-68
2021/07/09 03:27:38;;;;;;;11.20;10.10;;;17.30;99.90;;;;;;5026553;28;20619;-67
2021/07/09 03:30:09;;;;;;;10.77;9.77;;;17.30;99.90;;;;;;5026052;28;20237;-67
2021/07/09 03:32:37;;;;;;;10.97;9.97;;;17.30;99.90;;;;;;5026750;28;20241;-67
2021/07/09 03:35:08;;;;;;;10.50;9.50;;;17.30;99.90;;;;;;5026227;28;20586;-67
2021/07/09 03:37:37;;;;;;;10.27;9.30;;;17.20;99.90;;;;;;5028392;28;20233;-67
2021/07/09 03:40:08;;;;;;;10.37;9.57;;;17.30;99.90;;;;;;5044845;28;21492;-67
2021/07/09 03:42:36;;;;;;;9.33;8.63;;;17.50;99.90;;;;;;5029393;28;20238;-67
2021/07/09 03:45:06;;;;;;;9.50;8.60;;;17.30;99.90;;;;;;5048675;28;20703;-67
2021/07/09 03:47:35;;;;;;;9.17;8.40;;;17.40;99.90;;;;;;5049590;28;20240;-66
2021/07/09 03:50:04;;;;;;;9.43;8.73;;;17.40;99.90;;;;;;5049171;28;20239;-67
2021/07/09 03:52:32;;;;;;;10.90;9.90;;;17.40;99.90;;;;;;5049766;28;20316;-66
2021/07/09 03:55:00;;;;;;;11.13;10.03;;;17.60;99.90;;;;;;5064716;28;20244;-66
2021/07/09 03:57:28;;;;;;;10.53;9.30;;;17.50;99.90;;;;;;5049671;28;20235;-66
2021/07/09 03:59:56;;;;;;;11.20;10.10;;;17.40;99.90;;;;;;5049032;28;20282;-67
2021/07/09 04:02:24;;;;;;;12.80;10.23;;;17.60;99.90;;;;;;5049615;28;20243;-66
2021/07/09 04:04:54;;;;;;;10.03;8.97;;;17.60;99.90;;;;;;5032163;28;20241;-67
2021/07/09 04:07:22;;;;;;;10.67;9.80;;;17.60;99.90;;;;;;5029618;28;20249;-66
2021/07/09 04:09:50;;;;;;;11.80;10.67;;;17.60;99.90;;;;;;5028283;28;20252;-67
2021/07/09 04:12:18;;;;;;;12.93;11.70;;;17.80;99.90;;;;;;5029774;28;20236;-67
2021/07/09 04:14:46;;;;;;;10.87;10.03;;;17.80;99.90;;;;;;5028791;28;20248;-67
2021/07/09 04:17:14;;;;;;;13.63;11.03;;;17.90;99.90;;;;;;5029704;28;20245;-67
2021/07/09 04:19:42;;;;;;;11.47;10.33;;;17.70;99.90;;;;;;5044149;28;20293;-66
2021/07/09 04:22:12;;;;;;;11.47;10.47;;;17.60;99.90;;;;;;5029777;28;20550;-67
2021/07/09 04:24:40;;;;;;;11.27;10.30;;;17.50;99.90;;;;;;5028870;28;20260;-67
2021/07/09 04:27:08;;;;;;;10.60;9.70;;;17.50;99.90;;;;;;5029416;28;20233;-68
2021/07/09 04:29:36;;;;;;;11.73;10.73;;;17.60;99.90;;;;;;5028384;28;20234;-67
2021/07/09 04:32:04;;;;;;;11.47;10.27;;;17.50;99.90;;;;;;5029233;28;20238;-67
2021/07/09 04:34:33;;;;;;;11.60;10.57;;;17.60;99.90;;;;;;5028877;28;20238;-67
2021/07/09 04:37:02;;;;;;;10.37;9.37;;;17.60;99.90;;;;;;5028943;28;20436;-67
2021/07/09 04:39:37;;;;;;;12.97;11.67;;;17.60;99.90;;;;;;5028103;28;20697;-67
2021/07/09 04:42:05;;;;;;;11.40;10.27;;;17.60;99.90;;;;;;5029028;28;20889;-67
2021/07/09 04:44:34;;;;;;;12.57;11.37;;;17.60;99.90;;;;;;5027170;28;20324;-66
2021/07/09 04:47:02;;;;;;;12.50;11.40;;;17.60;99.90;;;;;;5028231;28;20240;-67
2021/07/09 04:49:31;;;;;;;12.07;10.83;;;17.70;99.90;;;;;;5026184;28;20225;-67
2021/07/09 04:51:59;;;;;;;13.13;12.03;;;17.60;99.90;;;;;;5028433;28;20237;-67
2021/07/09 04:54:27;;;;;;;12.67;11.47;;;17.60;99.90;;;;;;5028375;28;20237;-67
2021/07/09 04:56:58;;;;;;;12.53;11.40;;;17.60;99.90;;;;;;5028622;28;20245;-67
2021/07/09 04:59:26;;;;;;;13.83;12.43;;;17.60;99.90;;;;;;5041657;28;20657;-67
2021/07/09 05:01:54;;;;;;;13.10;11.80;;;17.60;99.90;;;;;;5048484;28;20241;-67
2021/07/09 05:04:22;;;;;;;12.57;11.40;;;17.60;99.90;;;;;;5035219;28;20232;-67
2021/07/09 05:06:51;;;;;;;12.90;11.70;;;17.70;99.90;;;;;;5028395;28;20305;-67
2021/07/09 05:09:19;;;;;;;13.13;12.03;;;17.70;99.90;;;;;;5039384;28;20237;-68
2021/07/09 05:11:48;;;;;;;13.93;12.63;;;17.90;99.90;;;;;;5030570;28;20625;-68
2021/07/09 05:14:17;;;;;;;12.80;11.70;;;17.90;99.90;;;;;;5028163;28;20227;-66
2021/07/09 05:16:45;;;;;;;13.77;11.90;;;17.90;99.90;;;;;;5028002;28;20380;-67
2021/07/09 05:19:14;;;;;;;12.07;10.97;;;17.90;99.90;;;;;;5027118;28;20594;-67
2021/07/09 05:21:42;;;;;;;13.87;11.73;;;17.90;99.90;;;;;;5028098;28;20293;-67
2021/07/09 05:24:12;;;;;;;14.07;12.93;;;17.90;99.90;;;;;;5027702;28;20758;-67
2021/07/09 05:26:42;;;;;;;16.17;14.43;;;18.00;99.90;;;;;;5027956;28;20298;-66
2021/07/09 05:29:10;;;;;;;13.70;12.47;;;18.10;99.90;;;;;;5027248;28;20251;-66
2021/07/09 05:31:41;;;;;;;13.80;12.03;;;18.10;99.90;;;;;;5027722;28;20226;-67
2021/07/09 05:34:10;;;;;;;13.23;12.10;;;18.10;99.90;;;;;;5027427;28;20296;-67
2021/07/09 05:36:38;;;;;;;15.23;13.82;;;18.20;99.90;;;;;;5026405;28;20516;-67
2021/07/09 05:39:07;;;;;;;12.63;11.57;;;18.20;99.90;;;;;;5026796;28;20282;-67
2021/07/09 05:41:35;;;;;;;12.00;10.77;;;18.20;99.90;;;;;;5026524;28;20243;-67
2021/07/09 05:44:03;;;;;;;12.57;11.37;;;18.20;99.90;;;;;;5026849;28;20236;-67
2021/07/09 05:46:33;;;;;;;12.63;10.97;;;18.30;99.90;;;;;;5051922;28;20248;-67
2021/07/09 05:49:03;;;;;;;12.67;11.43;;;18.30;99.90;;;;;;5037497;28;20238;-67
2021/07/09 05:51:31;;;;;;;13.90;10.23;;;18.40;99.90;;;;;;5025810;28;20241;-67
2021/07/09 05:53:59;;;;;;;11.80;10.70;;;18.50;99.90;;;;;;5035617;28;20567;-67
2021/07/09 05:56:27;;;;;;;13.07;10.60;;;18.50;99.90;;;;;;5046294;28;20272;-67
2021/07/09 05:58:55;;;;;;;11.60;10.20;;;18.60;99.90;;;;;;5035884;28;20512;-67
2021/07/09 06:01:23;;;;;;;11.63;10.43;;;18.70;99.90;;;;;;5025483;28;20245;-67
2021/07/09 06:03:52;;;;;;;11.90;10.80;;;18.80;99.90;;;;;;5025411;28;20365;-67
2021/07/09 06:06:21;;;;;;;10.30;9.40;;;19.00;99.90;;;;;;5025872;28;20755;-67
2021/07/09 06:08:49;;;;;;;12.93;11.63;;;19.00;99.90;;;;;;5024194;28;20283;-66
2021/07/09 06:11:17;;;;;;;10.27;9.27;;;19.10;99.90;;;;;;5025727;28;20259;-66
2021/07/09 06:13:45;;;;;;;10.77;9.73;;;19.20;99.90;;;;;;5025298;28;21199;-66
2021/07/09 06:16:15;;;;;;;12.57;11.27;;;19.30;99.90;;;;;;5025322;28;20236;-67
2021/07/09 06:18:43;;;;;;;10.93;9.90;;;19.40;99.90;;;;;;5020781;28;20242;-67
2021/07/09 06:21:27;;;;;;;11.63;10.50;;;19.50;99.90;;;;;;5028276;28;20753;-67
2021/07/09 06:23:55;;;;;;;10.30;9.10;;;19.60;99.90;;;;;;5026507;28;20288;-67
2021/07/09 06:26:23;;;;;;;9.47;8.57;;;19.70;99.90;;;;;;5029918;28;20603;-67
2021/07/09 06:28:51;;;;;;;10.13;9.13;;;19.80;99.90;;;;;;5034206;28;20245;-67
2021/07/09 06:31:19;;;;;;;10.40;9.07;;;19.90;99.90;;;;;;5026613;28;20278;-68
2021/07/09 06:33:48;;;;;;;9.67;8.87;;;19.90;99.90;;;;;;5025008;28;20481;-67
2021/07/09 06:36:16;;;;;;;12.63;11.43;;;20.00;99.90;;;;;;5025681;28;20322;-67
2021/07/09 06:38:47;;;;;;;10.77;9.67;;;20.00;99.90;;;;;;5025535;28;20759;-67
2021/07/09 06:41:15;;;;;;;12.13;11.00;;;20.10;99.90;;;;;;5026537;28;20240;-67
2021/07/09 06:43:43;;;;;;;12.60;10.23;;;20.10;99.90;;;;;;5016502;28;21053;-67
2021/07/09 06:46:12;;;;;;;12.10;11.10;;;20.20;99.90;;;;;;5026149;28;20634;-67
2021/07/09 06:48:40;;;;;;;10.40;9.40;;;20.30;99.90;;;;;;5033581;28;20745;-67
2021/07/09 06:51:09;;;;;;;11.77;10.13;;;20.30;99.90;;;;;;5026501;28;20243;-66
2021/07/09 06:53:37;;;;;;;11.77;10.63;;;20.40;99.90;;;;;;5025748;28;20239;-67
2021/07/09 06:56:07;;;;;;;10.77;9.60;;;20.40;99.90;;;;;;5027071;28;20232;-67
2021/07/09 06:58:35;;;;;;;11.47;10.20;;;20.60;99.90;;;;;;5024186;28;20235;-66
2021/07/09 07:01:03;;;;;;;10.27;9.30;;;20.70;99.90;;;;;;5023432;28;20297;-67
2021/07/09 07:03:31;;;;;;;10.90;9.90;;;20.70;99.90;;;;;;5029152;28;20334;-67
2021/07/09 07:05:59;;;;;;;11.53;10.53;;;20.80;99.90;;;;;;5023875;28;20243;-66
2021/07/09 07:08:28;;;;;;;12.07;10.77;;;20.90;99.90;;;;;;5023538;28;20240;-66
2021/07/09 07:10:57;;;;;;;10.70;9.70;;;20.90;99.90;;;;;;5023413;28;20235;-66
2021/07/09 07:13:26;;;;;;;9.77;8.87;;;20.90;99.90;;;;;;5026628;28;20599;-66
2021/07/09 07:15:55;;;;;;;9.97;9.07;;;20.90;99.90;;;;;;5025304;28;20248;-67
2021/07/09 07:18:23;;;;;;;10.43;9.33;;;21.10;99.90;;;;;;5026995;28;20645;-66
2021/07/09 07:20:53;;;;;;;11.30;10.17;;;21.20;99.90;;;;;;5026640;28;20236;-67
2021/07/09 07:23:22;;;;;;;9.47;8.63;;;21.30;99.90;;;;;;5032204;28;20242;-65
2021/07/09 07:25:50;;;;;;;9.37;8.40;;;21.50;99.90;;;;;;5044544;28;20653;-67
2021/07/09 07:28:19;;;;;;;9.97;8.93;;;21.80;99.90;;;;;;5043138;28;20274;-66
2021/07/09 07:31:07;;;;;;;8.70;8.00;;;22.00;99.90;;;;;;5044264;28;20297;-67
2021/07/09 07:33:36;;;;;;;10.47;8.87;;;22.20;99.90;;;;;;5045181;28;20704;-67
2021/07/09 07:36:19;;;;;;;10.23;9.13;;;22.00;99.90;;;;;;5045290;28;20313;-67
2021/07/09 07:38:48;;;;;;;10.07;9.10;;;22.00;99.90;;;;;;5036412;28;20703;-66
2021/07/09 07:41:17;;;;;;;9.03;8.23;;;22.00;99.90;;;;;;5026600;28;20244;-66
2021/07/09 07:43:46;;;;;;;9.73;8.83;;;22.10;99.90;;;;;;5034735;28;20254;-67
2021/07/09 07:46:17;;;;;;;8.83;8.03;;;22.30;99.90;;;;;;5047232;28;20375;-66
2021/07/09 07:48:45;;;;;;;9.00;8.20;;;22.40;99.90;;;;;;5045928;28;20243;-67
2021/07/09 07:51:13;;;;;;;8.27;7.03;;;22.50;99.90;;;;;;5042145;28;20228;-67
2021/07/09 07:53:42;;;;;;;8.83;8.03;;;22.50;99.90;;;;;;5021602;28;20236;-67
2021/07/09 07:56:10;;;;;;;8.57;7.77;;;22.40;99.90;;;;;;5023415;28;20627;-67
2021/07/09 07:58:38;;;;;;;9.30;7.70;;;22.50;99.90;;;;;;5041208;28;20329;-66
2021/07/09 08:01:07;;;;;;;8.53;7.53;;;22.50;99.90;;;;;;5024704;28;20262;-66
2021/07/09 08:03:37;;;;;;;6.53;5.90;;;22.70;99.90;;;;;;5028322;28;20259;-66
2021/07/09 08:06:06;;;;;;;8.53;7.63;;;23.00;99.90;;;;;;5027131;28;20735;-66
2021/07/09 08:08:35;;;;;;;8.67;7.80;;;23.30;99.90;;;;;;5032630;28;20244;-67
2021/07/09 08:11:04;;;;;;;8.53;7.40;;;23.40;99.90;;;;;;5022823;28;20609;-67
2021/07/09 08:13:32;;;;;;;8.37;7.10;;;23.40;99.90;;;;;;5028119;28;20772;-67
2021/07/09 08:16:01;;;;;;;7.33;6.00;;;23.40;99.90;;;;;;5020135;28;20241;-67
2021/07/09 08:18:29;;;;;;;8.40;6.90;;;23.60;99.90;;;;;;5028255;28;20233;-67
2021/07/09 08:20:59;;;;;;;9.03;6.80;;;23.70;99.90;;;;;;5024373;28;20228;-67
2021/07/09 08:23:28;;;;;;;8.10;7.40;;;23.70;99.90;;;;;;5026042;28;20243;-66
2021/07/09 08:25:56;;;;;;;8.00;7.07;;;23.70;99.90;;;;;;5026319;28;20241;-67
2021/07/09 08:28:24;;;;;;;9.83;6.97;;;23.80;99.90;;;;;;5026066;28;20260;-67
2021/07/09 08:30:53;;;;;;;8.53;7.73;;;23.80;99.90;;;;;;5025660;28;20363;-67
2021/07/09 08:33:21;;;;;;;9.40;8.50;;;23.60;99.90;;;;;;5031375;28;20296;-67
2021/07/09 08:35:49;;;;;;;10.10;9.10;;;23.60;99.90;;;;;;5046009;28;20244;-66
2021/07/09 08:38:19;;;;;;;9.90;8.00;;;23.60;99.90;;;;;;5056641;28;20332;-67
2021/07/09 08:40:47;;;;;;;8.80;7.90;;;23.70;99.90;;;;;;5025337;28;20248;-67
2021/07/09 08:43:30;;;;;;;8.80;8.00;;;23.90;99.90;;;;;;5025658;28;20889;-66
2021/07/09 08:45:58;;;;;;;10.10;8.27;;;24.20;99.90;;;;;;5026410;28;20233;-67
2021/07/09 08:48:27;;;;;;;8.93;7.67;;;24.40;99.90;;;;;;5025350;28;20248;-67
2021/07/09 08:50:58;;;;;;;9.90;8.30;;;24.40;99.90;;;;;;5025902;28;20237;-67
2021/07/09 08:53:28;;;;;;;8.43;7.63;;;24.40;99.90;;;;;;5025750;28;20248;-67
2021/07/09 08:55:57;;;;;;;8.63;7.83;;;24.40;99.90;;;;;;5026067;28;20261;-67
2021/07/09 08:58:25;;;;;;;7.97;6.97;;;24.20;99.90;;;;;;5030227;28;20256;-66
2021/07/09 09:00:54;;;;;;;10.73;7.33;;;24.10;99.90;;;;;;5050538;28;20251;-67
2021/07/09 09:03:25;;;;;;;11.33;7.30;;;23.80;99.90;;;;;;5046190;28;20747;-67
2021/07/09 09:05:59;;;;;;;8.07;7.37;;;23.60;99.90;;;;;;5045853;28;20240;-67
2021/07/09 09:08:32;;;;;;;8.23;6.73;;;23.40;99.90;;;;;;5039572;28;20262;-66
2021/07/09 09:11:01;;;;;;;6.73;6.13;;;23.30;99.90;;;;;;5025363;28;20247;-67
2021/07/09 09:13:32;;;;;;;7.27;6.33;;;23.30;99.90;;;;;;5030885;28;20239;-66
2021/07/09 09:16:04;;;;;;;11.20;6.53;;;23.30;99.90;;;;;;5045661;28;20242;-66
2021/07/09 09:18:36;;;;;;;8.43;7.10;;;23.30;99.90;;;;;;5038420;28;20689;-67
2021/07/09 09:21:07;;;;;;;7.50;6.77;;;23.40;99.90;;;;;;5025215;28;20323;-67
2021/07/09 09:23:39;;;;;;;6.80;5.30;;;23.40;99.90;;;;;;5025222;28;20559;-67
2021/07/09 09:26:07;;;;;;;6.23;5.63;;;23.50;99.90;;;;;;5024035;28;20306;-67
2021/07/09 09:28:37;;;;;;;9.00;5.57;;;23.50;99.90;;;;;;5024715;28;20608;-67
2021/07/09 09:31:06;;;;;;;5.63;5.00;;;23.70;99.90;;;;;;5024904;28;20529;-67
2021/07/09 09:33:37;;;;;;;5.57;5.07;;;23.80;99.90;;;;;;5026039;28;20243;-67
2021/07/09 09:36:08;;;;;;;7.63;5.07;;;24.10;99.90;;;;;;5024673;28;20240;-67
2021/07/09 09:38:38;;;;;;;6.83;4.80;;;24.20;99.90;;;;;;5024050;28;20242;-68
2021/07/09 09:41:17;;;;;;;5.67;5.10;;;24.50;99.90;;;;;;5022746;28;20621;-67
2021/07/09 09:43:46;;;;;;;6.83;4.97;;;24.40;99.90;;;;;;5039729;28;20245;-67
2021/07/09 09:46:15;;;;;;;5.63;4.70;;;24.30;99.90;;;;;;5017855;28;20240;-67
2021/07/09 09:48:45;;;;;;;8.17;5.20;;;24.30;99.90;;;;;;5023186;28;20307;-67
2021/07/09 09:51:28;;;;;;;6.13;4.33;;;24.20;99.90;;;;;;5022721;28;20245;-67
2021/07/09 09:53:59;;;;;;;10.00;4.37;;;24.20;99.90;;;;;;5024719;28;20237;-67
2021/07/09 09:56:46;;;;;;;4.97;4.07;;;24.00;99.90;;;;;;5022635;28;20593;-67
2021/07/09 09:59:19;;;;;;;5.60;4.43;;;24.00;99.90;;;;;;5024070;28;20236;-68
2021/07/09 10:01:57;;;;;;;7.20;4.00;;;24.00;99.90;;;;;;5024351;28;20236;-67
2021/07/09 10:04:27;;;;;;;7.67;4.43;;;24.20;99.90;;;;;;5038188;28;20248;-67
2021/07/09 10:06:57;;;;;;;5.93;4.40;;;24.40;99.90;;;;;;5022321;28;20688;-66
2021/07/09 10:09:29;;;;;;;4.57;4.07;;;24.50;99.90;;;;;;5024484;28;20582;-67
2021/07/09 10:12:03;;;;;;;5.20;4.60;;;24.80;99.90;;;;;;5024482;28;20260;-66
2021/07/09 10:14:34;;;;;;;5.93;4.53;;;25.00;99.90;;;;;;5031929;28;20242;-67
2021/07/09 10:17:04;;;;;;;7.00;4.27;;;25.00;99.90;;;;;;5033868;28;20674;-67
2021/07/09 10:19:37;;;;;;;6.00;4.50;;;25.30;99.90;;;;;;5036897;28;20240;-66
2021/07/09 10:22:22;;;;;;;4.53;4.13;;;25.40;99.90;;;;;;5044603;28;20652;-66
2021/07/09 10:24:54;;;;;;;4.60;3.97;;;25.10;99.90;;;;;;5036739;28;21720;-67
2021/07/09 10:27:24;;;;;;;7.53;4.20;;;25.10;99.90;;;;;;5056627;28;20244;-67
2021/07/09 10:29:54;;;;;;;4.33;3.93;;;25.20;99.90;;;;;;5026537;28;20237;-67
2021/07/09 10:32:41;;;;;;;8.27;6.20;;;25.30;99.90;;;;;;5024247;28;20653;-67
2021/07/09 10:35:10;;;;;;;7.73;5.00;;;25.00;99.90;;;;;;5042784;28;20313;-67
2021/07/09 10:37:39;;;;;;;5.73;4.60;;;24.90;99.90;;;;;;5044109;28;20238;-67
2021/07/09 10:40:11;;;;;;;6.97;5.30;;;24.60;99.90;;;;;;5043148;28;20275;-67
2021/07/09 10:42:40;;;;;;;7.60;5.47;;;24.30;99.90;;;;;;5044011;28;20248;-67
2021/07/09 10:45:14;;;;;;;11.87;6.33;;;23.90;99.90;;;;;;5024610;28;20238;-67
2021/07/09 10:47:46;;;;;;;9.90;6.93;;;23.80;99.90;;;;;;5025775;28;20236;-67
2021/07/09 10:50:15;;;;;;;7.40;5.87;;;23.70;99.90;;;;;;5027759;28;20247;-67
2021/07/09 10:52:48;;;;;;;6.07;5.47;;;23.80;99.90;;;;;;5028014;28;20274;-67
2021/07/09 10:55:44;;;;;;;6.70;5.80;;;23.90;99.90;;;;;;5008648;28;20241;-66
2021/07/09 10:58:20;;;;;;;8.57;5.30;;;23.60;99.90;;;;;;5014890;28;20960;-67
2021/07/09 11:00:49;;;;;;;6.33;5.70;;;23.40;99.90;;;;;;5047200;28;20332;-67
2021/07/09 11:03:29;;;;;;;7.67;5.73;;;23.40;99.90;;;;;;5044026;28;20319;-67
2021/07/09 11:06:05;;;;;;;7.17;6.03;;;23.10;99.90;;;;;;5027383;28;20247;-67
2021/07/09 11:08:53;;;;;;;8.37;6.20;;;23.10;99.90;;;;;;5032714;28;20240;-67
2021/07/09 11:11:42;;;;;;;7.97;6.50;;;23.00;99.90;;;;;;5046216;28;20260;-67
2021/07/09 11:14:20;;;;;;;8.53;6.50;;;23.00;99.90;;;;;;5046315;28;20285;-67
2021/07/09 11:16:58;;;;;;;7.33;6.30;;;22.80;99.90;;;;;;5046307;28;20696;-66
2021/07/09 11:19:33;;;;;;;7.40;6.13;;;22.70;99.90;;;;;;5025067;28;20252;-67
2021/07/09 11:22:08;;;;;;;6.70;6.00;;;22.70;99.90;;;;;;5026562;28;20235;-67
2021/07/09 11:24:43;;;;;;;6.97;6.27;;;22.60;99.90;;;;;;5041805;28;20777;-67
2021/07/09 11:27:18;;;;;;;7.77;6.40;;;22.40;99.90;;;;;;5037810;28;20642;-67
2021/07/09 11:29:56;;;;;;;8.53;6.13;;;22.30;99.90;;;;;;5032005;28;20236;-67
2021/07/09 11:32:29;;;;;;;7.40;6.37;;;22.20;99.90;;;;;;5029007;28;20239;-66
2021/07/09 11:34:58;;;;;;;8.83;5.70;;;22.10;99.90;;;;;;5036771;28;20235;-67
2021/07/09 11:37:30;;;;;;;7.97;5.53;;;22.00;99.90;;;;;;5025479;28;20298;-67
2021/07/09 11:40:00;;;;;;;8.07;5.67;;;22.10;99.90;;;;;;5020467;28;20231;-67
2021/07/09 11:42:30;;;;;;;7.67;5.97;;;22.20;99.90;;;;;;5018565;28;20236;-66
2021/07/09 11:45:00;;;;;;;6.87;6.17;;;22.20;99.90;;;;;;5026507;28;20241;-67
2021/07/09 11:47:30;;;;;;;7.53;5.57;;;22.30;99.90;;;;;;5017646;28;20327;-67
2021/07/09 11:50:01;;;;;;;6.00;5.40;;;22.40;99.90;;;;;;5034509;28;20243;-67
2021/07/09 11:52:31;;;;;;;7.17;5.20;;;22.50;99.90;;;;;;5026709;28;20795;-67
2021/07/09 11:55:01;;;;;;;7.63;5.50;;;22.50;99.90;;;;;;5026605;28;20247;-66
2021/07/09 11:57:33;;;;;;;7.80;5.03;;;22.60;99.90;;;;;;5026436;28;20238;-67
2021/07/09 12:00:09;;;;;;;7.70;6.00;;;22.60;99.90;;;;;;5027457;28;20236;-67
2021/07/09 12:02:44;;;;;;;9.50;5.50;;;22.70;99.90;;;;;;5028363;28;20595;-67
2021/07/09 12:05:22;;;;;;;7.74;5.59;;;22.80;99.90;;;;;;4872048;28;10001098;-65
2021/07/09 12:07:52;;;;;;;9.07;5.60;;;22.80;99.90;;;;;;1379971;28;10002001;-67
2021/07/09 12:10:21;;;;;;;5.77;5.27;;;22.70;99.90;;;;;;5026941;28;21727;-67
2021/07/09 12:12:52;;;;;;;7.87;5.80;;;22.50;99.90;;;;;;5029331;28;20704;-67
2021/07/09 12:15:22;;;;;;;6.33;5.50;;;22.50;99.90;;;;;;5029221;28;20334;-67
2021/07/09 12:17:52;;;;;;;7.60;6.10;;;22.30;99.90;;;;;;5029597;28;25260;-66
2021/07/09 12:20:24;;;;;;;9.23;5.67;;;22.20;99.90;;;;;;5043775;28;20237;-67
2021/07/09 12:22:54;;;;;;;9.47;5.93;;;22.10;99.90;;;;;;5025171;28;20760;-67
2021/07/09 12:25:24;;;;;;;7.73;6.07;;;22.00;99.90;;;;;;5029510;28;20251;-67
2021/07/09 12:27:56;;;;;;;9.77;6.00;;;21.90;99.90;;;;;;5027877;28;20718;-67
2021/07/09 12:30:27;;;;;;;8.80;5.93;;;21.80;99.90;;;;;;5028472;28;20636;-67
2021/07/09 12:32:58;;;;;;;6.57;5.90;;;21.80;99.90;;;;;;5028781;28;20294;-67
2021/07/09 12:35:36;;;;;;;9.07;6.30;;;21.60;99.90;;;;;;5021838;28;20279;-67
2021/07/09 12:38:09;;;;;;;7.77;5.90;;;21.50;99.90;;;;;;5030738;28;20242;-67
2021/07/09 12:40:39;;;;;;;7.83;6.00;;;21.50;99.90;;;;;;5048125;28;20236;-67
2021/07/09 12:43:20;;;;;;;10.73;7.23;;;21.40;99.90;;;;;;5031519;28;20319;-67
2021/07/09 12:45:58;;;;;;;7.90;6.83;;;21.30;99.90;;;;;;5040044;28;20262;-67
2021/07/09 12:48:32;;;;;;;11.37;7.00;;;21.20;99.90;;;;;;5030165;28;20231;-67
2021/07/09 12:51:01;;;;;;;7.63;6.87;;;21.20;99.90;;;;;;5028842;28;20628;-67
2021/07/09 12:53:29;;;;;;;9.03;7.60;;;21.20;99.90;;;;;;5028733;28;20232;-67
2021/07/09 12:55:57;;;;;;;8.87;6.87;;;21.10;99.90;;;;;;5028871;28;20244;-67